createdAt,value
2018-07-01T00:00:11.025Z,0.00
2018-07-01T00:01:10.996Z,0.00
2018-07-01T00:02:10.977Z,0.00
2018-07-01T00:03:10.963Z,0.00
2018-07-01T00:04:10.947Z,0.00
2018-07-01T00:05:10.923Z,0.00
2018-07-01T00:06:10.906Z,0.00
2018-07-01T00:07:10.893Z,0.00
2018-07-01T00:08:10.872Z,0.00
2018-07-01T00:09:10.861Z,0.00
2018-07-01T00:10:10.847Z,0.00
2018-07-01T00:11:10.820Z,0.00
2018-07-01T00:12:10.803Z,0.00
2018-07-01T00:13:10.789Z,0.00
2018-07-01T00:14:10.766Z,0.00
2018-07-01T00:15:10.758Z,0.00
2018-07-01T00:16:10.732Z,0.00
2018-07-01T00:17:10.716Z,0.00
2018-07-01T00:18:10.698Z,0.00
2018-07-01T00:19:10.679Z,0.00
2018-07-01T00:20:10.659Z,0.00
2018-07-01T00:21:10.645Z,0.00
2018-07-01T00:22:10.626Z,0.00
2018-07-01T00:23:10.608Z,0.00
2018-07-01T00:24:10.594Z,0.00
2018-07-01T00:25:10.575Z,0.00
2018-07-01T00:26:10.570Z,0.00
2018-07-01T00:27:10.537Z,0.00
2018-07-01T00:28:10.523Z,0.00
2018-07-01T00:29:10.507Z,0.00
2018-07-01T00:30:10.486Z,0.00
2018-07-01T00:31:10.472Z,0.00
2018-07-01T00:32:10.451Z,0.00
2018-07-01T00:33:10.432Z,0.00
2018-07-01T00:34:10.415Z,0.00
2018-07-01T00:35:10.399Z,0.00
2018-07-01T00:36:10.381Z,0.00
2018-07-01T00:37:10.369Z,0.00
2018-07-01T00:38:10.344Z,0.00
2018-07-01T00:39:10.326Z,0.00
2018-07-01T00:40:10.307Z,0.00
2018-07-01T00:41:10.290Z,0.00
2018-07-01T00:42:10.272Z,0.00
2018-07-01T00:43:10.253Z,0.00
2018-07-01T00:44:10.237Z,0.00
2018-07-01T00:45:10.218Z,0.00
2018-07-01T00:46:10.199Z,0.00
2018-07-01T00:47:10.183Z,0.00
2018-07-01T00:48:10.164Z,0.00
2018-07-01T00:49:10.149Z,0.00
2018-07-01T00:50:10.128Z,0.00
2018-07-01T00:51:10.112Z,0.00
2018-07-01T00:52:10.093Z,0.00
2018-07-01T00:53:10.076Z,0.00
2018-07-01T00:54:10.058Z,0.00
2018-07-01T00:55:10.038Z,0.00
2018-07-01T00:56:10.026Z,0.00
2018-07-01T00:57:10.004Z,0.00
2018-07-01T00:58:09.985Z,0.00
2018-07-01T00:59:09.967Z,0.00
2018-07-01T01:00:09.951Z,0.00
2018-07-01T01:01:09.930Z,0.00
2018-07-01T01:02:09.913Z,0.00
2018-07-01T01:03:09.894Z,0.00
2018-07-01T01:04:09.875Z,0.00
2018-07-01T01:05:09.860Z,0.00
2018-07-01T01:06:09.841Z,0.00
2018-07-01T01:07:09.826Z,0.00
2018-07-01T01:08:09.804Z,0.00
2018-07-01T01:09:09.786Z,0.00
2018-07-01T01:10:09.767Z,0.00
2018-07-01T01:11:09.750Z,0.00
2018-07-01T01:12:09.732Z,0.00
2018-07-01T01:13:09.714Z,0.00
2018-07-01T01:14:09.694Z,0.00
2018-07-01T01:15:09.676Z,0.00
2018-07-01T01:16:09.663Z,0.00
2018-07-01T01:17:09.641Z,0.00
2018-07-01T01:18:09.622Z,0.00
2018-07-01T01:19:09.604Z,0.00
2018-07-01T01:20:09.589Z,0.00
2018-07-01T01:21:09.567Z,0.00
2018-07-01T01:22:09.553Z,0.00
2018-07-01T01:23:09.533Z,0.00
2018-07-01T01:24:09.513Z,0.00
2018-07-01T01:25:09.494Z,0.00
2018-07-01T01:26:09.480Z,0.00
2018-07-01T01:27:09.465Z,0.00
2018-07-01T01:28:09.441Z,0.00
2018-07-01T01:29:09.420Z,0.00
2018-07-01T01:30:09.402Z,0.00
2018-07-01T01:31:09.385Z,0.00
2018-07-01T01:32:09.366Z,0.00
2018-07-01T01:33:09.350Z,0.00
2018-07-01T01:34:09.333Z,0.00
2018-07-01T01:35:09.311Z,0.00
2018-07-01T01:36:09.294Z,0.00
2018-07-01T01:37:09.276Z,0.00
2018-07-01T01:38:09.257Z,0.00
2018-07-01T01:39:09.239Z,0.00
2018-07-01T01:40:09.220Z,0.00
2018-07-01T01:41:09.203Z,0.00
2018-07-01T01:42:09.183Z,0.00
2018-07-01T01:43:09.172Z,0.00
2018-07-01T01:44:09.146Z,0.00
2018-07-01T01:45:09.126Z,0.00
2018-07-01T01:46:09.109Z,0.00
2018-07-01T01:47:09.091Z,0.00
2018-07-01T01:48:09.071Z,0.00
2018-07-01T01:49:09.057Z,0.00
2018-07-01T01:50:09.034Z,0.00
2018-07-01T01:51:09.021Z,0.00
2018-07-01T01:52:08.997Z,0.00
2018-07-01T01:53:08.980Z,0.00
2018-07-01T01:54:08.960Z,0.00
2018-07-01T01:55:08.943Z,0.00
2018-07-01T01:56:08.924Z,0.00
2018-07-01T01:57:08.907Z,0.00
2018-07-01T01:58:08.890Z,0.00
2018-07-01T01:59:08.871Z,0.00
2018-07-01T02:00:08.852Z,0.00
2018-07-01T02:01:08.831Z,0.00
2018-07-01T02:02:08.816Z,0.00
2018-07-01T02:03:08.794Z,0.00
2018-07-01T02:04:08.776Z,0.00
2018-07-01T02:05:08.759Z,0.00
2018-07-01T02:06:08.739Z,0.00
2018-07-01T02:07:08.728Z,0.00
2018-07-01T02:08:08.710Z,0.00
2018-07-01T02:09:08.685Z,0.00
2018-07-01T02:10:08.664Z,0.00
2018-07-01T02:11:08.650Z,0.00
2018-07-01T02:12:08.627Z,0.00
2018-07-01T02:13:08.611Z,0.00
2018-07-01T02:14:08.589Z,0.00
2018-07-01T02:15:08.571Z,0.00
2018-07-01T02:16:08.555Z,0.00
2018-07-01T02:17:08.536Z,0.00
2018-07-01T02:18:08.517Z,0.00
2018-07-01T02:19:08.495Z,0.00
2018-07-01T02:20:08.475Z,0.00
2018-07-01T02:21:08.461Z,0.00
2018-07-01T02:22:09.856Z,0.00
2018-07-01T02:23:08.420Z,0.00
2018-07-01T02:24:08.404Z,0.00
2018-07-01T02:25:08.386Z,0.00
2018-07-01T02:26:08.363Z,0.00
2018-07-01T02:27:08.345Z,0.00
2018-07-01T02:28:08.329Z,0.00
2018-07-01T02:29:08.307Z,0.00
2018-07-01T02:30:08.288Z,0.00
2018-07-01T02:31:08.271Z,0.00
2018-07-01T02:32:08.252Z,0.00
2018-07-01T02:33:08.232Z,0.00
2018-07-01T02:34:08.213Z,0.00
2018-07-01T02:35:08.194Z,0.00
2018-07-01T02:36:08.177Z,0.00
2018-07-01T02:37:08.164Z,0.00
2018-07-01T02:38:08.139Z,0.00
2018-07-01T02:39:08.117Z,0.00
2018-07-01T02:40:08.100Z,0.00
2018-07-01T02:41:08.081Z,0.00
2018-07-01T02:42:08.062Z,0.00
2018-07-01T02:43:08.043Z,0.00
2018-07-01T02:44:08.025Z,0.00
2018-07-01T02:45:08.006Z,0.00
2018-07-01T02:46:08.063Z,0.00
2018-07-01T02:47:07.979Z,0.00
2018-07-01T02:48:07.957Z,0.00
2018-07-01T02:49:07.934Z,5.63
2018-07-01T02:50:07.910Z,5.63
2018-07-01T02:51:07.891Z,5.63
2018-07-01T02:52:07.873Z,5.63
2018-07-01T02:53:07.855Z,5.63
2018-07-01T02:54:07.839Z,5.63
2018-07-01T02:55:07.820Z,5.63
2018-07-01T02:56:07.797Z,5.63
2018-07-01T02:57:07.778Z,5.63
2018-07-01T02:58:07.769Z,5.63
2018-07-01T02:59:07.745Z,5.63
2018-07-01T03:00:07.723Z,5.63
2018-07-01T03:01:07.702Z,5.63
2018-07-01T03:02:07.683Z,11.25
2018-07-01T03:03:07.664Z,11.25
2018-07-01T03:04:07.647Z,11.25
2018-07-01T03:05:07.645Z,11.25
2018-07-01T03:06:07.611Z,11.25
2018-07-01T03:07:07.588Z,11.25
2018-07-01T03:08:07.569Z,11.25
2018-07-01T03:09:07.553Z,11.25
2018-07-01T03:10:07.532Z,11.25
2018-07-01T03:11:07.513Z,11.25
2018-07-01T03:12:07.495Z,11.25
2018-07-01T03:13:07.475Z,11.25
2018-07-01T03:14:07.463Z,16.88
2018-07-01T03:15:07.436Z,16.88
2018-07-01T03:16:07.416Z,16.88
2018-07-01T03:17:07.401Z,16.88
2018-07-01T03:18:07.379Z,16.88
2018-07-01T03:19:07.360Z,16.88
2018-07-01T03:20:07.340Z,16.88
2018-07-01T03:21:07.321Z,16.88
2018-07-01T03:22:07.300Z,16.88
2018-07-01T03:23:07.282Z,16.88
2018-07-01T03:24:07.263Z,16.88
2018-07-01T03:25:07.244Z,16.88
2018-07-01T03:26:07.223Z,22.50
2018-07-01T03:27:07.209Z,22.50
2018-07-01T03:28:07.196Z,22.50
2018-07-01T03:29:07.173Z,22.50
2018-07-01T03:30:07.149Z,22.50
2018-07-01T03:31:07.130Z,22.50
2018-07-01T03:32:07.108Z,22.50
2018-07-01T03:33:07.094Z,22.50
2018-07-01T03:34:07.074Z,22.50
2018-07-01T03:35:07.050Z,22.50
2018-07-01T03:36:07.034Z,22.50
2018-07-01T03:37:07.014Z,22.50
2018-07-01T03:38:07.003Z,28.13
2018-07-01T03:39:06.974Z,28.13
2018-07-01T03:40:06.956Z,28.13
2018-07-01T03:41:06.934Z,28.13
2018-07-01T03:42:06.917Z,28.13
2018-07-01T03:43:06.896Z,28.13
2018-07-01T03:44:06.877Z,28.13
2018-07-01T03:45:06.858Z,28.13
2018-07-01T03:46:06.837Z,28.13
2018-07-01T03:47:06.820Z,28.13
2018-07-01T03:48:06.799Z,28.13
2018-07-01T03:49:06.781Z,28.13
2018-07-01T03:50:06.817Z,28.13
2018-07-01T03:51:06.740Z,33.75
2018-07-01T03:52:06.725Z,33.75
2018-07-01T03:53:06.703Z,33.75
2018-07-01T03:54:06.682Z,33.75
2018-07-01T03:55:06.663Z,33.75
2018-07-01T03:56:06.648Z,33.75
2018-07-01T03:57:06.626Z,33.75
2018-07-01T03:58:06.605Z,33.75
2018-07-01T03:59:06.587Z,33.75
2018-07-01T04:00:06.567Z,33.75
2018-07-01T04:01:06.553Z,33.75
2018-07-01T04:02:06.528Z,33.75
2018-07-01T04:03:06.508Z,33.75
2018-07-01T04:04:06.489Z,33.75
2018-07-01T04:05:06.470Z,39.38
2018-07-01T04:06:06.451Z,39.38
2018-07-01T04:07:06.435Z,39.38
2018-07-01T04:08:06.410Z,39.38
2018-07-01T04:09:06.393Z,39.38
2018-07-01T04:10:06.373Z,39.38
2018-07-01T04:11:06.355Z,39.38
2018-07-01T04:12:06.335Z,39.38
2018-07-01T04:13:06.316Z,39.38
2018-07-01T04:14:06.298Z,39.38
2018-07-01T04:15:06.278Z,39.38
2018-07-01T04:16:06.257Z,39.38
2018-07-01T04:17:06.237Z,39.38
2018-07-01T04:18:06.217Z,39.38
2018-07-01T04:19:06.198Z,39.38
2018-07-01T04:20:06.187Z,39.38
2018-07-01T04:21:06.160Z,45.00
2018-07-01T04:22:06.141Z,45.00
2018-07-01T04:23:06.123Z,45.00
2018-07-01T04:24:06.100Z,45.00
2018-07-01T04:25:06.085Z,45.00
2018-07-01T04:26:06.062Z,45.00
2018-07-01T04:27:06.045Z,45.00
2018-07-01T04:28:06.023Z,45.00
2018-07-01T04:29:06.006Z,45.00
2018-07-01T04:30:05.984Z,45.00
2018-07-01T04:31:05.980Z,45.00
2018-07-01T04:32:05.948Z,45.00
2018-07-01T04:33:05.929Z,45.00
2018-07-01T04:34:05.907Z,45.00
2018-07-01T04:35:05.888Z,45.00
2018-07-01T04:36:05.867Z,45.00
2018-07-01T04:37:05.855Z,45.00
2018-07-01T04:38:05.830Z,45.00
2018-07-01T04:39:05.812Z,45.00
2018-07-01T04:40:05.791Z,45.00
2018-07-01T04:41:05.776Z,50.63
2018-07-01T04:42:05.754Z,50.63
2018-07-01T04:43:05.734Z,50.63
2018-07-01T04:44:05.716Z,50.63
2018-07-01T04:45:05.699Z,50.63
2018-07-01T04:46:05.681Z,50.63
2018-07-01T04:47:05.663Z,50.63
2018-07-01T04:48:05.637Z,50.63
2018-07-01T04:49:05.620Z,50.63
2018-07-01T04:50:05.599Z,50.63
2018-07-01T04:51:05.580Z,50.63
2018-07-01T04:52:05.565Z,50.63
2018-07-01T04:53:05.543Z,50.63
2018-07-01T04:54:05.525Z,50.63
2018-07-01T04:55:05.529Z,50.63
2018-07-01T04:56:05.489Z,50.63
2018-07-01T04:57:05.465Z,56.25
2018-07-01T04:58:05.447Z,56.25
2018-07-01T04:59:05.433Z,56.25
2018-07-01T05:00:05.412Z,56.25
2018-07-01T05:01:05.398Z,56.25
2018-07-01T05:02:05.448Z,56.25
2018-07-01T05:03:05.354Z,56.25
2018-07-01T05:04:05.343Z,56.25
2018-07-01T05:05:05.318Z,56.25
2018-07-01T05:06:05.297Z,56.25
2018-07-01T05:07:05.277Z,56.25
2018-07-01T05:08:05.260Z,56.25
2018-07-01T05:09:05.241Z,56.25
2018-07-01T05:10:05.222Z,56.25
2018-07-01T05:11:05.204Z,56.25
2018-07-01T05:12:05.185Z,56.25
2018-07-01T05:13:05.168Z,61.88
2018-07-01T05:14:05.146Z,61.88
2018-07-01T05:15:05.127Z,61.88
2018-07-01T05:16:05.113Z,61.88
2018-07-01T05:17:05.102Z,61.88
2018-07-01T05:18:05.073Z,61.88
2018-07-01T05:19:05.057Z,61.88
2018-07-01T05:20:05.033Z,61.88
2018-07-01T05:21:05.021Z,61.88
2018-07-01T05:22:04.996Z,61.88
2018-07-01T05:23:04.981Z,61.88
2018-07-01T05:24:04.959Z,61.88
2018-07-01T05:25:04.941Z,61.88
2018-07-01T05:26:04.927Z,61.88
2018-07-01T05:27:04.903Z,67.50
2018-07-01T05:28:04.888Z,67.50
2018-07-01T05:29:04.867Z,67.50
2018-07-01T05:30:04.851Z,73.13
2018-07-01T05:31:04.829Z,73.13
2018-07-01T05:32:04.812Z,67.50
2018-07-01T05:33:04.793Z,67.50
2018-07-01T05:34:04.776Z,67.50
2018-07-01T05:35:04.782Z,67.50
2018-07-01T05:36:04.737Z,67.50
2018-07-01T05:37:04.720Z,90.00
2018-07-01T05:38:04.705Z,106.88
2018-07-01T05:39:04.682Z,101.25
2018-07-01T05:40:04.667Z,90.00
2018-07-01T05:41:04.648Z,78.75
2018-07-01T05:42:04.630Z,73.13
2018-07-01T05:43:04.610Z,73.13
2018-07-01T05:44:04.591Z,73.13
2018-07-01T05:45:04.579Z,73.13
2018-07-01T05:46:04.556Z,73.13
2018-07-01T05:47:04.538Z,73.13
2018-07-01T05:48:04.521Z,73.13
2018-07-01T05:49:04.502Z,73.13
2018-07-01T05:50:04.483Z,73.13
2018-07-01T05:51:04.465Z,73.13
2018-07-01T05:52:04.450Z,73.13
2018-07-01T05:53:04.429Z,78.75
2018-07-01T05:54:04.410Z,78.75
2018-07-01T05:55:04.396Z,78.75
2018-07-01T05:56:04.377Z,78.75
2018-07-01T05:57:04.427Z,78.75
2018-07-01T05:58:04.345Z,78.75
2018-07-01T05:59:04.323Z,78.75
2018-07-01T06:00:04.310Z,78.75
2018-07-01T06:01:04.286Z,78.75
2018-07-01T06:02:04.270Z,78.75
2018-07-01T06:03:04.254Z,84.38
2018-07-01T06:04:04.235Z,84.38
2018-07-01T06:05:04.215Z,84.38
2018-07-01T06:06:04.198Z,84.38
2018-07-01T06:07:04.182Z,84.38
2018-07-01T06:08:04.168Z,84.38
2018-07-01T06:09:04.146Z,84.38
2018-07-01T06:10:04.131Z,90.00
2018-07-01T06:11:04.120Z,90.00
2018-07-01T06:12:04.096Z,106.88
2018-07-01T06:13:04.078Z,106.88
2018-07-01T06:14:04.080Z,90.00
2018-07-01T06:15:04.044Z,101.25
2018-07-01T06:16:04.026Z,106.88
2018-07-01T06:17:04.013Z,101.25
2018-07-01T06:18:03.994Z,101.25
2018-07-01T06:19:03.981Z,135.00
2018-07-01T06:20:03.959Z,180.00
2018-07-01T06:21:03.943Z,191.25
2018-07-01T06:22:03.932Z,213.75
2018-07-01T06:23:03.914Z,236.25
2018-07-01T06:24:03.893Z,208.13
2018-07-01T06:25:03.875Z,196.88
2018-07-01T06:26:03.857Z,230.63
2018-07-01T06:27:03.840Z,275.63
2018-07-01T06:28:03.819Z,281.25
2018-07-01T06:29:03.805Z,225.00
2018-07-01T06:30:03.789Z,191.25
2018-07-01T06:31:03.773Z,191.25
2018-07-01T06:32:03.757Z,219.38
2018-07-01T06:33:03.739Z,258.75
2018-07-01T06:34:03.727Z,275.63
2018-07-01T06:35:03.704Z,303.75
2018-07-01T06:36:03.689Z,343.13
2018-07-01T06:37:03.674Z,393.75
2018-07-01T06:38:03.654Z,421.88
2018-07-01T06:39:03.643Z,421.88
2018-07-01T06:40:03.623Z,421.88
2018-07-01T06:41:03.610Z,438.75
2018-07-01T06:42:03.684Z,427.50
2018-07-01T06:43:03.572Z,472.50
2018-07-01T06:44:03.558Z,455.63
2018-07-01T06:45:03.548Z,427.50
2018-07-01T06:46:03.528Z,405.00
2018-07-01T06:47:03.512Z,405.00
2018-07-01T06:48:03.501Z,410.63
2018-07-01T06:49:03.482Z,405.00
2018-07-01T06:50:03.466Z,393.75
2018-07-01T06:51:03.449Z,410.63
2018-07-01T06:52:03.437Z,421.88
2018-07-01T06:53:03.418Z,466.88
2018-07-01T06:54:03.402Z,433.13
2018-07-01T06:55:03.392Z,399.38
2018-07-01T06:56:03.373Z,478.13
2018-07-01T06:57:03.359Z,506.25
2018-07-01T06:58:03.344Z,495.00
2018-07-01T06:59:03.327Z,438.75
2018-07-01T07:00:03.319Z,410.63
2018-07-01T07:01:03.306Z,371.25
2018-07-01T07:02:03.286Z,343.13
2018-07-01T07:03:03.272Z,258.75
2018-07-01T07:04:03.255Z,292.50
2018-07-01T07:05:03.240Z,270.00
2018-07-01T07:06:03.225Z,213.75
2018-07-01T07:07:03.210Z,185.63
2018-07-01T07:08:03.265Z,208.13
2018-07-01T07:09:03.185Z,241.88
2018-07-01T07:10:03.171Z,315.00
2018-07-01T07:11:03.152Z,253.13
2018-07-01T07:12:03.147Z,213.75
2018-07-01T07:13:03.128Z,225.00
2018-07-01T07:14:03.109Z,247.50
2018-07-01T07:15:03.097Z,191.25
2018-07-01T07:16:03.083Z,264.38
2018-07-01T07:17:03.068Z,286.88
2018-07-01T07:18:03.055Z,405.00
2018-07-01T07:19:03.043Z,399.38
2018-07-01T07:20:03.027Z,337.50
2018-07-01T07:21:03.017Z,270.00
2018-07-01T07:22:02.998Z,219.38
2018-07-01T07:23:02.985Z,241.88
2018-07-01T07:24:02.984Z,247.50
2018-07-01T07:25:02.967Z,236.25
2018-07-01T07:26:02.944Z,326.25
2018-07-01T07:27:02.933Z,360.00
2018-07-01T07:28:02.916Z,253.13
2018-07-01T07:29:02.905Z,213.75
2018-07-01T07:30:02.892Z,208.13
2018-07-01T07:31:02.876Z,270.00
2018-07-01T07:32:02.907Z,213.75
2018-07-01T07:33:02.848Z,292.50
2018-07-01T07:34:02.832Z,354.38
2018-07-01T07:35:02.822Z,337.50
2018-07-01T07:36:02.806Z,337.50
2018-07-01T07:37:02.791Z,258.75
2018-07-01T07:38:02.777Z,180.00
2018-07-01T07:39:02.765Z,258.75
2018-07-01T07:40:02.758Z,247.50
2018-07-01T07:41:02.737Z,174.38
2018-07-01T07:42:02.724Z,163.13
2018-07-01T07:43:02.709Z,157.50
2018-07-01T07:44:02.701Z,292.50
2018-07-01T07:45:02.855Z,264.38
2018-07-01T07:46:02.669Z,185.63
2018-07-01T07:47:02.657Z,309.38
2018-07-01T07:48:02.641Z,348.75
2018-07-01T07:49:02.628Z,331.88
2018-07-01T07:50:02.618Z,281.25
2018-07-01T07:51:02.603Z,258.75
2018-07-01T07:52:02.589Z,230.63
2018-07-01T07:53:02.574Z,202.50
2018-07-01T07:54:02.566Z,202.50
2018-07-01T07:55:02.548Z,354.38
2018-07-01T07:56:02.534Z,354.38
2018-07-01T07:57:02.522Z,337.50
2018-07-01T07:58:02.513Z,264.38
2018-07-01T07:59:02.498Z,253.13
2018-07-01T08:00:02.486Z,286.88
2018-07-01T08:01:02.467Z,326.25
2018-07-01T08:02:02.573Z,286.88
2018-07-01T08:03:02.452Z,382.50
2018-07-01T08:04:02.430Z,376.88
2018-07-01T08:05:02.417Z,292.50
2018-07-01T08:06:02.406Z,393.75
2018-07-01T08:07:02.393Z,230.63
2018-07-01T08:08:02.377Z,551.25
2018-07-01T08:09:02.364Z,433.13
2018-07-01T08:10:02.352Z,517.50
2018-07-01T08:11:02.338Z,523.13
2018-07-01T08:12:02.325Z,624.38
2018-07-01T08:13:02.328Z,663.75
2018-07-01T08:14:02.301Z,1456.88
2018-07-01T08:15:02.291Z,2705.63
2018-07-01T08:16:02.279Z,3915.00
2018-07-01T08:17:02.263Z,4612.50
2018-07-01T08:18:02.259Z,4606.88
2018-07-01T08:19:02.238Z,4556.25
2018-07-01T08:20:02.228Z,4539.38
2018-07-01T08:21:02.216Z,4590.00
2018-07-01T08:22:02.267Z,4651.88
2018-07-01T08:23:02.196Z,4685.63
2018-07-01T08:24:02.198Z,4691.25
2018-07-01T08:25:02.186Z,4050.00
2018-07-01T08:26:02.169Z,241.88
2018-07-01T08:27:02.160Z,331.88
2018-07-01T08:28:02.155Z,365.63
2018-07-01T08:29:02.261Z,320.63
2018-07-01T08:30:02.135Z,1496.25
2018-07-01T08:31:02.131Z,326.25
2018-07-01T08:32:02.124Z,354.38
2018-07-01T08:33:02.113Z,275.63
2018-07-01T08:34:02.108Z,658.13
2018-07-01T08:35:02.104Z,3751.88
2018-07-01T08:36:02.089Z,4826.25
2018-07-01T08:37:02.080Z,4786.88
2018-07-01T08:38:02.069Z,410.63
2018-07-01T08:39:02.069Z,236.25
2018-07-01T08:40:02.054Z,225.00
2018-07-01T08:41:02.046Z,258.75
2018-07-01T08:42:02.046Z,326.25
2018-07-01T08:43:02.030Z,444.38
2018-07-01T08:44:02.024Z,4651.88
2018-07-01T08:45:02.017Z,4246.88
2018-07-01T08:46:02.015Z,4213.13
2018-07-01T08:47:02.011Z,4449.38
2018-07-01T08:48:01.994Z,4758.75
2018-07-01T08:49:01.989Z,5068.13
2018-07-01T08:50:01.985Z,5281.88
2018-07-01T08:51:01.975Z,5411.25
2018-07-01T08:52:01.982Z,5636.25
2018-07-01T08:53:01.964Z,3898.13
2018-07-01T08:54:01.957Z,5692.50
2018-07-01T08:55:02.005Z,5613.75
2018-07-01T08:56:01.950Z,5636.25
2018-07-01T08:57:01.944Z,3583.13
2018-07-01T08:58:01.937Z,5450.63
2018-07-01T08:59:01.931Z,393.75
2018-07-01T09:00:01.929Z,337.50
2018-07-01T09:01:01.933Z,725.63
2018-07-01T09:02:01.930Z,658.13
2018-07-01T09:03:01.922Z,6013.13
2018-07-01T09:04:01.915Z,4950.00
2018-07-01T09:05:01.908Z,3712.50
2018-07-01T09:06:01.901Z,5754.38
2018-07-01T09:07:01.897Z,5726.25
2018-07-01T09:08:01.906Z,5731.88
2018-07-01T09:09:01.891Z,5866.88
2018-07-01T09:10:01.887Z,5788.13
2018-07-01T09:11:01.883Z,5760.00
2018-07-01T09:12:01.882Z,5692.50
2018-07-01T09:13:01.917Z,5568.75
2018-07-01T09:14:01.873Z,5506.88
2018-07-01T09:15:01.870Z,5529.38
2018-07-01T09:16:01.867Z,5664.38
2018-07-01T09:17:01.942Z,5793.75
2018-07-01T09:18:01.869Z,5866.88
2018-07-01T09:19:01.862Z,5377.50
2018-07-01T09:20:01.857Z,5011.88
2018-07-01T09:21:01.853Z,348.75
2018-07-01T09:22:01.855Z,534.38
2018-07-01T09:23:01.852Z,6041.25
2018-07-01T09:24:01.848Z,4905.00
2018-07-01T09:25:01.846Z,5760.00
2018-07-01T09:26:01.845Z,911.25
2018-07-01T09:27:01.859Z,6485.63
2018-07-01T09:28:01.837Z,6553.13
2018-07-01T09:29:01.837Z,1080.00
2018-07-01T09:30:01.852Z,607.50
2018-07-01T09:31:01.830Z,433.13
2018-07-01T09:32:01.836Z,405.00
2018-07-01T09:33:01.827Z,309.38
2018-07-01T09:34:01.827Z,270.00
2018-07-01T09:35:01.825Z,253.13
2018-07-01T09:36:01.818Z,292.50
2018-07-01T09:37:01.817Z,354.38
2018-07-01T09:38:01.814Z,585.00
2018-07-01T09:39:01.818Z,511.88
2018-07-01T09:40:01.809Z,399.38
2018-07-01T09:41:01.809Z,523.13
2018-07-01T09:42:01.807Z,315.00
2018-07-01T09:43:01.800Z,253.13
2018-07-01T09:44:01.801Z,219.38
2018-07-01T09:45:01.797Z,208.13
2018-07-01T09:46:01.788Z,292.50
2018-07-01T09:47:01.795Z,5855.63
2018-07-01T09:48:01.781Z,5911.88
2018-07-01T09:49:01.781Z,5917.50
2018-07-01T09:50:01.774Z,5979.38
2018-07-01T09:51:01.768Z,6204.38
2018-07-01T09:52:01.767Z,1383.75
2018-07-01T09:53:01.778Z,5461.88
2018-07-01T09:54:01.762Z,6586.88
2018-07-01T09:55:01.761Z,6091.88
2018-07-01T09:56:01.757Z,3813.75
2018-07-01T09:57:01.753Z,5377.50
2018-07-01T09:58:01.745Z,5315.63
2018-07-01T09:59:01.744Z,5613.75
2018-07-01T10:00:01.741Z,376.88
2018-07-01T10:01:01.765Z,410.63
2018-07-01T10:02:01.738Z,461.25
2018-07-01T10:03:01.743Z,472.50
2018-07-01T10:04:01.738Z,376.88
2018-07-01T10:05:01.729Z,376.88
2018-07-01T10:06:01.723Z,236.25
2018-07-01T10:07:01.722Z,427.50
2018-07-01T10:08:01.719Z,320.63
2018-07-01T10:09:01.715Z,225.00
2018-07-01T10:10:01.713Z,461.25
2018-07-01T10:11:01.720Z,500.63
2018-07-01T10:12:01.814Z,253.13
2018-07-01T10:13:01.704Z,213.75
2018-07-01T10:14:01.697Z,174.38
2018-07-01T10:15:01.701Z,157.50
2018-07-01T10:16:01.695Z,140.63
2018-07-01T10:17:01.694Z,157.50
2018-07-01T10:18:01.684Z,140.63
2018-07-01T10:19:01.678Z,118.13
2018-07-01T10:20:01.677Z,151.88
2018-07-01T10:21:01.681Z,180.00
2018-07-01T10:22:01.678Z,230.63
2018-07-01T10:23:01.661Z,225.00
2018-07-01T10:24:01.661Z,213.75
2018-07-01T10:25:01.655Z,219.38
2018-07-01T10:26:01.659Z,225.00
2018-07-01T10:27:01.646Z,185.63
2018-07-01T10:28:01.642Z,174.38
2018-07-01T10:29:01.642Z,157.50
2018-07-01T10:30:01.633Z,191.25
2018-07-01T10:31:01.626Z,196.88
2018-07-01T10:32:01.620Z,185.63
2018-07-01T10:33:01.617Z,213.75
2018-07-01T10:34:01.611Z,185.63
2018-07-01T10:35:01.611Z,410.63
2018-07-01T10:36:01.607Z,455.63
2018-07-01T10:37:01.653Z,461.25
2018-07-01T10:38:01.586Z,275.63
2018-07-01T10:39:01.584Z,213.75
2018-07-01T10:40:01.579Z,337.50
2018-07-01T10:41:01.574Z,174.38
2018-07-01T10:42:01.566Z,382.50
2018-07-01T10:43:01.559Z,450.00
2018-07-01T10:44:01.555Z,433.13
2018-07-01T10:45:01.548Z,450.00
2018-07-01T10:46:01.542Z,270.00
2018-07-01T10:47:01.533Z,185.63
2018-07-01T10:48:01.530Z,157.50
2018-07-01T10:49:01.527Z,135.00
2018-07-01T10:50:01.515Z,140.63
2018-07-01T10:51:01.509Z,151.88
2018-07-01T10:52:01.504Z,185.63
2018-07-01T10:53:01.502Z,185.63
2018-07-01T10:54:01.496Z,208.13
2018-07-01T10:55:01.488Z,236.25
2018-07-01T10:56:01.488Z,365.63
2018-07-01T10:57:01.477Z,225.00
2018-07-01T10:58:01.470Z,1231.88
2018-07-01T10:59:01.463Z,1220.63
2018-07-01T11:00:01.460Z,1299.38
2018-07-01T11:01:01.444Z,1108.13
2018-07-01T11:02:01.446Z,900.00
2018-07-01T11:03:01.539Z,613.13
2018-07-01T11:04:01.431Z,506.25
2018-07-01T11:05:01.423Z,483.75
2018-07-01T11:06:01.469Z,489.38
2018-07-01T11:07:01.409Z,489.38
2018-07-01T11:08:01.407Z,506.25
2018-07-01T11:09:01.400Z,511.88
2018-07-01T11:10:01.406Z,500.63
2018-07-01T11:11:01.388Z,495.00
2018-07-01T11:12:01.390Z,551.25
2018-07-01T11:13:01.382Z,596.25
2018-07-01T11:14:01.376Z,793.13
2018-07-01T11:15:01.370Z,765.00
2018-07-01T11:16:01.363Z,635.63
2018-07-01T11:17:01.353Z,540.00
2018-07-01T11:18:01.352Z,466.88
2018-07-01T11:19:01.345Z,888.75
2018-07-01T11:20:01.358Z,326.25
2018-07-01T11:21:01.332Z,315.00
2018-07-01T11:22:01.322Z,309.38
2018-07-01T11:23:01.321Z,331.88
2018-07-01T11:24:01.315Z,343.13
2018-07-01T11:25:01.304Z,337.50
2018-07-01T11:26:01.298Z,354.38
2018-07-01T11:27:01.538Z,388.13
2018-07-01T11:28:01.288Z,360.00
2018-07-01T11:29:01.280Z,365.63
2018-07-01T11:30:01.275Z,365.63
2018-07-01T11:31:01.269Z,371.25
2018-07-01T11:32:01.262Z,399.38
2018-07-01T11:33:01.261Z,365.63
2018-07-01T11:34:01.248Z,376.88
2018-07-01T11:35:01.259Z,405.00
2018-07-01T11:36:01.238Z,466.88
2018-07-01T11:37:01.233Z,376.88
2018-07-01T11:38:01.225Z,399.38
2018-07-01T11:39:01.223Z,208.13
2018-07-01T11:40:01.211Z,472.50
2018-07-01T11:41:01.208Z,286.88
2018-07-01T11:42:01.200Z,281.25
2018-07-01T11:43:01.201Z,213.75
2018-07-01T11:44:01.188Z,180.00
2018-07-01T11:45:01.184Z,174.38
2018-07-01T11:46:01.177Z,151.88
2018-07-01T11:47:01.170Z,163.13
2018-07-01T11:48:01.163Z,174.38
2018-07-01T11:49:01.156Z,180.00
2018-07-01T11:50:01.152Z,196.88
2018-07-01T11:51:01.144Z,258.75
2018-07-01T11:52:01.135Z,286.88
2018-07-01T11:53:01.131Z,303.75
2018-07-01T11:54:01.123Z,371.25
2018-07-01T11:55:01.118Z,360.00
2018-07-01T11:56:01.111Z,337.50
2018-07-01T11:57:01.104Z,337.50
2018-07-01T11:58:01.147Z,393.75
2018-07-01T11:59:01.092Z,630.00
2018-07-01T12:00:01.119Z,354.38
2018-07-01T12:01:01.077Z,315.00
2018-07-01T12:02:01.068Z,585.00
2018-07-01T12:03:01.059Z,382.50
2018-07-01T12:04:01.055Z,551.25
2018-07-01T12:05:16.205Z,540.00
2018-07-01T12:06:01.041Z,551.25
2018-07-01T12:07:01.045Z,551.25
2018-07-01T12:08:01.028Z,568.13
2018-07-01T12:09:01.028Z,613.13
2018-07-01T12:10:01.014Z,708.75
2018-07-01T12:11:01.009Z,331.88
2018-07-01T12:12:01.016Z,680.63
2018-07-01T12:13:01.006Z,1878.75
2018-07-01T12:14:00.988Z,4545.00
2018-07-01T12:15:00.982Z,5647.50
2018-07-01T12:16:00.980Z,5703.75
2018-07-01T12:17:00.975Z,292.50
2018-07-01T12:18:00.968Z,202.50
2018-07-01T12:19:00.965Z,236.25
2018-07-01T12:20:00.956Z,708.75
2018-07-01T12:21:00.949Z,821.25
2018-07-01T12:22:00.945Z,900.00
2018-07-01T12:23:00.938Z,376.88
2018-07-01T12:24:00.933Z,292.50
2018-07-01T12:25:00.931Z,821.25
2018-07-01T12:26:00.920Z,759.38
2018-07-01T12:27:00.922Z,984.38
2018-07-01T12:28:00.913Z,3099.38
2018-07-01T12:29:00.908Z,5467.50
2018-07-01T12:30:00.898Z,5253.75
2018-07-01T12:31:00.895Z,973.13
2018-07-01T12:32:00.892Z,292.50
2018-07-01T12:33:00.889Z,298.13
2018-07-01T12:34:00.879Z,253.13
2018-07-01T12:35:00.884Z,258.75
2018-07-01T12:36:00.875Z,208.13
2018-07-01T12:37:00.868Z,202.50
2018-07-01T12:38:00.861Z,500.63
2018-07-01T12:39:00.858Z,1395.00
2018-07-01T12:40:00.864Z,3515.63
2018-07-01T12:41:00.846Z,5737.50
2018-07-01T12:42:00.935Z,4044.38
2018-07-01T12:43:00.842Z,416.25